createdAt,value
2023-04-09T00:02:33.903Z,23.55
2023-04-09T00:05:19.726Z,28.77
2023-04-09T00:08:06.107Z,22.83
2023-04-09T00:10:56.556Z,16.95
2023-04-09T00:13:42.192Z,24.25
2023-04-09T00:16:27.811Z,32.80
2023-04-09T00:19:13.410Z,25.95
2023-04-09T00:21:59.029Z,31.13
2023-04-09T00:24:44.731Z,26.60
2023-04-09T00:27:30.723Z,29.67
2023-04-09T00:30:16.628Z,24.52
2023-04-09T00:33:02.676Z,25.38
2023-04-09T00:35:48.501Z,25.30
2023-04-09T00:38:34.053Z,29.67
2023-04-09T00:41:20.267Z,27.25
2023-04-09T00:44:06.273Z,28.30
2023-04-09T00:46:53.641Z,28.05
2023-04-09T00:49:39.385Z,25.88
2023-04-09T00:52:25.938Z,25.10
2023-04-09T00:55:13.252Z,22.35
2023-04-09T00:57:58.763Z,22.45
2023-04-09T01:00:44.474Z,21.25
2023-04-09T01:03:31.081Z,31.20
2023-04-09T01:06:54.774Z,25.67
2023-04-09T01:10:00.024Z,27.70
2023-04-09T01:13:08.317Z,22.63
2023-04-09T01:16:00.757Z,24.58
2023-04-09T01:18:58.021Z,31.08
2023-04-09T01:21:44.305Z,24.98
2023-04-09T01:24:47.489Z,23.63
2023-04-09T01:28:20.475Z,27.45
2023-04-09T01:31:13.056Z,27.92
2023-04-09T01:34:00.714Z,35.38
2023-04-09T01:36:53.791Z,35.40
2023-04-09T01:39:40.381Z,31.08
2023-04-09T01:42:27.013Z,26.65
2023-04-09T01:45:14.729Z,30.20
2023-04-09T01:48:02.586Z,30.65
2023-04-09T01:50:48.901Z,39.97
2023-04-09T01:53:35.803Z,38.88
2023-04-09T01:56:21.508Z,39.10
2023-04-09T01:59:06.948Z,40.40
2023-04-09T02:01:59.577Z,44.42
2023-04-09T02:04:48.644Z,43.58
2023-04-09T02:07:51.342Z,46.28
2023-04-09T02:10:39.092Z,43.55
2023-04-09T02:13:26.905Z,44.45
2023-04-09T02:16:16.190Z,57.95
2023-04-09T02:19:02.384Z,48.53
2023-04-09T02:21:47.950Z,46.05
2023-04-09T02:24:33.568Z,46.58
2023-04-09T02:27:19.294Z,45.20
2023-04-09T02:30:06.204Z,38.20
2023-04-09T02:32:51.785Z,30.10
2023-04-09T02:35:37.769Z,40.05
2023-04-09T02:38:24.481Z,38.53
2023-04-09T02:41:10.213Z,33.13
2023-04-09T02:43:56.148Z,36.80
2023-04-09T02:46:42.232Z,36.47
2023-04-09T02:49:28.120Z,31.30
2023-04-09T02:52:14.191Z,28.27
2023-04-09T02:54:59.890Z,25.67
2023-04-09T02:57:45.894Z,27.13
2023-04-09T03:00:31.577Z,26.48
2023-04-09T03:03:17.387Z,34.63
2023-04-09T03:06:03.304Z,34.58
2023-04-09T03:08:48.877Z,29.83
2023-04-09T03:11:34.834Z,26.45
2023-04-09T03:14:20.527Z,34.50
2023-04-09T03:17:06.097Z,26.92
2023-04-09T03:19:52.129Z,28.58
2023-04-09T03:22:38.970Z,25.92
2023-04-09T03:25:35.679Z,27.02
2023-04-09T03:28:29.735Z,29.98
2023-04-09T03:31:15.785Z,28.33
2023-04-09T03:34:02.931Z,29.42
2023-04-09T03:36:50.879Z,32.67
2023-04-09T03:39:41.673Z,20.83
2023-04-09T03:42:28.125Z,29.70
2023-04-09T03:45:14.852Z,26.58
2023-04-09T03:50:50.252Z,39.60
2023-04-09T03:53:43.784Z,39.35
2023-04-09T03:56:29.784Z,36.15
2023-04-09T03:59:17.273Z,39.30
2023-04-09T04:02:05.860Z,38.22
2023-04-09T04:04:54.930Z,53.97
2023-04-09T04:07:43.357Z,78.00
2023-04-09T04:10:36.228Z,82.90
2023-04-09T04:13:22.226Z,75.50
2023-04-09T04:16:14.005Z,66.03
2023-04-09T04:19:00.810Z,59.70
2023-04-09T04:21:48.374Z,45.72
2023-04-09T04:24:35.061Z,49.70
2023-04-09T04:27:21.967Z,45.13
2023-04-09T04:30:08.632Z,38.85
2023-04-09T04:33:01.739Z,31.20
2023-04-09T04:36:03.228Z,38.70
2023-04-09T04:38:59.109Z,36.25
2023-04-09T04:41:50.420Z,37.17
2023-04-09T04:44:41.039Z,30.92
2023-04-09T04:47:46.769Z,39.58
2023-04-09T04:50:33.447Z,37.30
2023-04-09T04:53:23.288Z,32.10
2023-04-09T04:56:15.033Z,39.00
2023-04-09T04:59:12.546Z,29.25
2023-04-09T05:02:11.692Z,33.05
2023-04-09T05:05:08.857Z,27.20
2023-04-09T05:08:00.888Z,35.60
2023-04-09T05:10:46.472Z,38.88
2023-04-09T05:13:32.842Z,27.52
2023-04-09T05:16:21.603Z,31.58
2023-04-09T05:19:13.749Z,39.05
2023-04-09T05:21:59.454Z,29.90
2023-04-09T05:24:45.815Z,37.30
2023-04-09T05:27:32.596Z,27.45
2023-04-09T05:30:21.050Z,22.80
2023-04-09T05:33:07.295Z,22.95
2023-04-09T05:35:53.781Z,17.50
2023-04-09T05:38:39.252Z,18.15
2023-04-09T05:41:24.875Z,19.10
2023-04-09T05:44:24.337Z,22.85
2023-04-09T05:47:14.739Z,15.35
2023-04-09T05:50:07.108Z,17.05
2023-04-09T05:52:53.488Z,16.70
2023-04-09T05:55:40.001Z,17.60
2023-04-09T05:58:27.741Z,13.80
2023-04-09T06:01:16.309Z,17.42
2023-04-09T06:04:02.354Z,15.38
2023-04-09T06:06:49.390Z,15.93
2023-04-09T06:09:34.935Z,16.83
2023-04-09T06:12:21.090Z,14.38
2023-04-09T06:15:07.135Z,14.40
2023-04-09T06:17:53.157Z,13.85
2023-04-09T06:20:38.723Z,14.00
2023-04-09T06:23:24.323Z,13.68
2023-04-09T06:26:10.066Z,25.25
2023-04-09T06:28:55.439Z,15.98
2023-04-09T06:31:41.381Z,16.40
2023-04-09T06:34:27.212Z,19.67
2023-04-09T06:37:12.696Z,18.25
2023-04-09T06:40:01.418Z,16.10
2023-04-09T06:42:47.141Z,17.08
2023-04-09T06:45:42.098Z,18.42
2023-04-09T06:48:27.880Z,19.15
2023-04-09T06:51:14.332Z,19.10
2023-04-09T06:54:00.231Z,23.55
2023-04-09T06:56:46.100Z,19.33
2023-04-09T06:59:31.787Z,24.52
2023-04-09T07:02:17.386Z,15.52
2023-04-09T07:05:04.439Z,14.63
2023-04-09T07:07:50.091Z,17.45
2023-04-09T07:10:35.596Z,13.70
2023-04-09T07:13:21.432Z,15.27
2023-04-09T07:16:07.303Z,27.67
2023-04-09T07:18:52.879Z,19.63
2023-04-09T07:21:38.949Z,20.13
2023-04-09T07:24:24.638Z,22.75
2023-04-09T07:27:10.555Z,21.98
2023-04-09T07:29:59.644Z,21.77
2023-04-09T07:32:45.525Z,20.75
2023-04-09T07:35:32.528Z,15.77
2023-04-09T07:38:18.238Z,18.63
2023-04-09T07:41:03.899Z,20.58
2023-04-09T07:43:50.206Z,17.08
2023-04-09T07:46:35.733Z,17.95
2023-04-09T07:49:21.708Z,22.38
2023-04-09T07:52:07.765Z,19.88
2023-04-09T07:54:53.654Z,13.20
2023-04-09T07:57:39.381Z,18.75
2023-04-09T08:00:26.890Z,13.55
2023-04-09T08:03:15.257Z,19.25
2023-04-09T08:06:01.380Z,17.67
2023-04-09T08:08:46.909Z,18.35
2023-04-09T08:12:01.398Z,19.98
2023-04-09T08:15:03.024Z,13.80
2023-04-09T08:17:48.728Z,18.10
2023-04-09T08:20:34.999Z,21.15
2023-04-09T08:23:20.645Z,12.90
2023-04-09T08:26:06.158Z,11.70
2023-04-09T08:28:51.698Z,11.65
2023-04-09T08:31:38.392Z,9.05
2023-04-09T08:34:23.846Z,26.70
2023-04-09T08:37:09.335Z,9.70
2023-04-09T08:39:54.905Z,11.85
2023-04-09T08:42:47.329Z,11.23
2023-04-09T08:45:33.075Z,6.93
2023-04-09T08:48:19.592Z,10.25
2023-04-09T08:51:05.754Z,10.40
2023-04-09T08:54:02.246Z,9.32
2023-04-09T08:56:49.685Z,8.63
2023-04-09T08:59:36.530Z,6.20
2023-04-09T09:02:23.579Z,6.35
2023-04-09T09:05:09.001Z,4.53
2023-04-09T09:07:54.791Z,6.07
2023-04-09T09:10:45.342Z,5.38
2023-04-09T09:13:30.727Z,6.30
2023-04-09T09:16:16.604Z,6.40
2023-04-09T09:19:03.135Z,7.93
2023-04-09T09:21:59.918Z,7.20
2023-04-09T09:24:50.319Z,3.60
2023-04-09T09:27:39.765Z,3.72
2023-04-09T09:30:27.096Z,4.50
2023-04-09T09:33:12.785Z,4.55
2023-04-09T09:35:58.234Z,4.00
2023-04-09T09:38:56.947Z,4.53
2023-04-09T09:44:33.281Z,3.20
2023-04-09T09:47:20.070Z,3.60
2023-04-09T09:50:06.737Z,4.15
2023-04-09T09:53:01.378Z,4.65
2023-04-09T09:55:51.505Z,3.90
2023-04-09T09:58:43.432Z,4.40
2023-04-09T10:01:29.683Z,5.95
2023-04-09T10:04:19.076Z,6.32
2023-04-09T10:09:55.958Z,3.65
2023-04-09T10:12:44.635Z,3.88
2023-04-09T10:15:31.186Z,6.10
2023-04-09T10:18:18.699Z,4.35
2023-04-09T10:21:32.914Z,5.18
2023-04-09T10:24:18.807Z,7.43
2023-04-09T10:27:17.743Z,3.22
2023-04-09T10:30:06.834Z,4.93
2023-04-09T10:35:38.311Z,3.10
2023-04-09T10:38:37.764Z,3.78
2023-04-09T10:41:29.023Z,3.72
2023-04-09T10:44:23.614Z,4.75
2023-04-09T10:47:11.114Z,4.80
2023-04-09T10:49:56.686Z,4.20
2023-04-09T10:52:43.627Z,3.70
2023-04-09T10:55:39.189Z,3.13
2023-04-09T10:58:24.808Z,3.90
2023-04-09T11:01:10.464Z,4.50
2023-04-09T11:04:19.980Z,4.63
2023-04-09T11:07:07.491Z,4.00
2023-04-09T11:09:53.309Z,2.78
2023-04-09T11:12:38.823Z,3.67
2023-04-09T11:15:24.444Z,3.33
2023-04-09T11:18:13.649Z,4.10
2023-04-09T11:21:02.837Z,4.18
2023-04-09T11:23:52.436Z,3.25
2023-04-09T11:26:38.225Z,3.90
2023-04-09T11:29:23.813Z,4.45
2023-04-09T11:32:09.700Z,3.70
2023-04-09T11:34:56.564Z,5.05
2023-04-09T11:37:43.822Z,3.95
2023-04-09T11:40:29.485Z,8.20
2023-04-09T11:43:16.113Z,4.20
2023-04-09T11:46:01.832Z,2.90
2023-04-09T11:48:48.104Z,3.40
2023-04-09T11:51:34.955Z,3.50
2023-04-09T11:54:20.691Z,3.75
2023-04-09T11:57:06.258Z,3.67
2023-04-09T11:59:51.793Z,3.47
2023-04-09T12:02:42.846Z,4.10
2023-04-09T12:05:32.370Z,3.90
2023-04-09T12:11:15.564Z,3.72
2023-04-09T12:14:05.015Z,4.00
2023-04-09T12:16:51.991Z,3.88
2023-04-09T12:19:38.010Z,3.78
2023-04-09T12:22:23.394Z,4.60
2023-04-09T12:25:09.234Z,5.15
2023-04-09T12:27:56.261Z,4.13
2023-04-09T12:30:43.467Z,7.50
2023-04-09T12:33:28.862Z,4.60
2023-04-09T12:36:17.897Z,5.00
2023-04-09T12:39:03.832Z,4.68
2023-04-09T12:41:55.852Z,4.60
2023-04-09T12:44:44.596Z,4.95
2023-04-09T12:47:32.892Z,4.35
2023-04-09T12:50:24.159Z,3.87
2023-04-09T12:53:09.967Z,3.88
2023-04-09T12:55:55.702Z,3.70
2023-04-09T12:58:44.249Z,4.28
2023-04-09T13:01:30.174Z,5.13
2023-04-09T13:04:16.268Z,4.03
2023-04-09T13:07:02.320Z,6.22
2023-04-09T13:09:51.786Z,4.43
2023-04-09T13:12:37.760Z,5.00
2023-04-09T13:15:26.205Z,4.00
2023-04-09T13:18:13.551Z,4.50
2023-04-09T13:20:59.406Z,6.22
2023-04-09T13:23:45.233Z,4.60
2023-04-09T13:26:34.165Z,4.85
2023-04-09T13:29:19.976Z,4.97
2023-04-09T13:32:10.341Z,5.03
2023-04-09T13:35:00.236Z,4.60
2023-04-09T13:37:52.804Z,5.15
2023-04-09T13:40:41.135Z,4.22
2023-04-09T13:43:28.724Z,5.57
2023-04-09T13:46:14.250Z,5.00
2023-04-09T13:49:04.888Z,5.53
2023-04-09T13:51:50.760Z,4.95
2023-04-09T13:54:37.041Z,6.43
2023-04-09T13:57:29.587Z,4.47
2023-04-09T14:00:15.761Z,5.13
2023-04-09T14:03:03.046Z,4.40
2023-04-09T14:05:49.118Z,4.78
2023-04-09T14:08:37.723Z,6.50
2023-04-09T14:11:23.088Z,4.22
2023-04-09T14:14:08.879Z,4.20
2023-04-09T14:17:07.178Z,4.60
2023-04-09T14:19:53.882Z,5.82
2023-04-09T14:22:48.904Z,7.40
2023-04-09T14:25:37.837Z,5.28
2023-04-09T14:28:26.934Z,7.68
2023-04-09T14:31:13.708Z,4.50
2023-04-09T14:34:04.627Z,8.15
2023-04-09T14:36:55.649Z,4.78
2023-04-09T14:39:43.240Z,7.75
2023-04-09T14:42:29.148Z,5.65
2023-04-09T14:45:17.826Z,4.55
2023-04-09T14:48:14.561Z,4.13
2023-04-09T14:51:24.318Z,3.88
2023-04-09T14:57:05.266Z,5.90
2023-04-09T14:59:50.712Z,4.72
2023-04-09T15:02:38.106Z,5.22
2023-04-09T15:05:23.990Z,4.78
2023-04-09T15:08:10.977Z,4.68
2023-04-09T15:10:56.803Z,4.18
2023-04-09T15:13:42.578Z,4.55
2023-04-09T15:16:28.779Z,3.92
2023-04-09T15:19:14.978Z,4.68
2023-04-09T15:22:00.743Z,4.55
2023-04-09T15:24:46.849Z,5.30
2023-04-09T15:27:32.349Z,5.47
2023-04-09T15:30:22.973Z,5.03
2023-04-09T15:33:11.525Z,5.68
2023-04-09T15:36:09.166Z,8.27
2023-04-09T15:38:55.468Z,4.85
2023-04-09T15:41:44.848Z,5.50
2023-04-09T15:44:30.586Z,5.43
2023-04-09T15:47:18.777Z,5.00
2023-04-09T15:50:07.619Z,5.67
2023-04-09T15:55:48.013Z,6.80
2023-04-09T15:58:35.492Z,8.25
2023-04-09T16:01:21.783Z,6.28
2023-04-09T16:04:09.876Z,4.85
2023-04-09T16:06:55.798Z,6.88
2023-04-09T16:09:45.607Z,5.53
2023-04-09T16:12:31.484Z,5.35
2023-04-09T16:15:20.274Z,6.88
2023-04-09T16:18:12.034Z,8.43
2023-04-09T16:20:58.162Z,5.38
2023-04-09T16:23:43.574Z,5.30
2023-04-09T16:26:29.271Z,7.75
2023-04-09T16:29:17.171Z,6.88
2023-04-09T16:32:07.363Z,5.35
2023-04-09T16:34:53.738Z,6.38
2023-04-09T16:37:39.161Z,6.65
2023-04-09T16:40:24.776Z,8.23
2023-04-09T16:43:11.010Z,9.07
2023-04-09T16:46:01.225Z,7.03
2023-04-09T16:48:49.318Z,5.68
2023-04-09T16:51:35.224Z,6.82
2023-04-09T16:54:21.170Z,6.43
2023-04-09T16:57:34.857Z,5.07
2023-04-09T17:00:23.293Z,9.07
2023-04-09T17:03:09.487Z,7.35
2023-04-09T17:06:00.751Z,8.65
2023-04-09T17:08:47.469Z,5.65
2023-04-09T17:11:36.062Z,7.20
2023-04-09T17:14:22.331Z,8.15
2023-04-09T17:17:08.477Z,6.95
2023-04-09T17:19:57.852Z,5.30
2023-04-09T17:22:43.438Z,6.80
2023-04-09T17:25:29.351Z,8.57
2023-04-09T17:28:16.985Z,7.22
2023-04-09T17:33:57.430Z,7.32
2023-04-09T17:36:51.794Z,6.78
2023-04-09T17:39:37.268Z,11.60
2023-04-09T17:42:22.874Z,5.97
2023-04-09T17:45:12.533Z,6.85
2023-04-09T17:47:58.206Z,7.05
2023-04-09T17:50:43.750Z,7.22
2023-04-09T17:53:31.163Z,7.50
2023-04-09T17:56:17.367Z,9.88
2023-04-09T17:59:03.379Z,10.85
2023-04-09T18:01:49.695Z,10.07
2023-04-09T18:04:36.068Z,8.68
2023-04-09T18:07:22.167Z,15.98
2023-04-09T18:10:08.498Z,10.88
2023-04-09T18:12:54.462Z,13.02
2023-04-09T18:15:40.120Z,9.10
2023-04-09T18:18:25.865Z,7.50
2023-04-09T18:21:14.419Z,7.15
2023-04-09T18:24:03.426Z,8.60
2023-04-09T18:26:49.283Z,8.27
2023-04-09T18:29:38.396Z,7.82
2023-04-09T18:32:24.659Z,7.75
2023-04-09T18:35:10.844Z,10.63
2023-04-09T18:37:57.040Z,9.25
2023-04-09T18:40:43.859Z,10.07
2023-04-09T18:43:29.828Z,10.13
2023-04-09T18:46:15.421Z,7.75
2023-04-09T18:49:01.098Z,6.90
2023-04-09T18:51:49.756Z,7.60
2023-04-09T18:54:37.779Z,5.50
2023-04-09T18:57:24.174Z,11.40
2023-04-09T19:00:13.825Z,10.52
2023-04-09T19:02:59.581Z,7.57
2023-04-09T19:08:49.870Z,10.60
2023-04-09T19:11:35.700Z,9.57
2023-04-09T19:14:23.583Z,8.00
2023-04-09T19:17:11.728Z,10.57
2023-04-09T19:20:01.994Z,10.63
2023-04-09T19:22:57.175Z,11.00
2023-04-09T19:25:42.633Z,10.27
2023-04-09T19:28:29.196Z,9.93
2023-04-09T19:31:24.988Z,8.60
2023-04-09T19:34:11.313Z,12.90
2023-04-09T19:36:58.478Z,12.55
2023-04-09T19:39:45.089Z,9.98
2023-04-09T19:42:34.595Z,11.70
2023-04-09T19:45:20.202Z,9.20
2023-04-09T19:48:06.866Z,10.10
2023-04-09T19:50:52.767Z,9.48
2023-04-09T19:53:38.889Z,9.18
2023-04-09T19:56:24.781Z,11.65
2023-04-09T19:59:10.496Z,11.48
2023-04-09T20:01:56.612Z,29.42
2023-04-09T20:04:42.571Z,13.20
2023-04-09T20:07:28.200Z,9.18
2023-04-09T20:10:14.006Z,9.75
2023-04-09T20:13:01.026Z,9.75
2023-04-09T20:15:46.980Z,9.38
2023-04-09T20:18:32.304Z,10.68
2023-04-09T20:21:18.178Z,16.38
2023-04-09T20:24:04.482Z,9.40
2023-04-09T20:26:50.860Z,6.80
2023-04-09T20:29:36.581Z,9.30
2023-04-09T20:32:22.161Z,8.75
2023-04-09T20:35:10.236Z,9.68
2023-04-09T20:37:55.770Z,9.82
2023-04-09T20:40:41.400Z,11.05
2023-04-09T20:43:26.941Z,8.73
2023-04-09T20:46:13.168Z,8.25
2023-04-09T20:49:00.182Z,9.07
2023-04-09T20:51:46.233Z,8.43
2023-04-09T20:54:32.885Z,6.63
2023-04-09T20:57:18.385Z,14.40
2023-04-09T21:00:04.418Z,8.80
2023-04-09T21:02:50.897Z,8.70
2023-04-09T21:05:36.656Z,6.30
2023-04-09T21:08:22.355Z,6.20
2023-04-09T21:11:08.237Z,7.25
2023-04-09T21:13:55.364Z,8.73
2023-04-09T21:16:41.491Z,6.85
2023-04-09T21:19:26.990Z,10.82
2023-04-09T21:22:12.468Z,6.30
2023-04-09T21:24:58.246Z,7.00
2023-04-09T21:27:43.820Z,7.30
2023-04-09T21:30:30.731Z,7.53
2023-04-09T21:33:16.337Z,5.68
2023-04-09T21:36:03.755Z,6.93
2023-04-09T21:38:49.151Z,7.38
2023-04-09T21:41:34.904Z,5.55
2023-04-09T21:44:20.686Z,6.57
2023-04-09T21:47:08.375Z,5.07
2023-04-09T21:49:54.122Z,7.10
2023-04-09T21:52:39.768Z,5.32
2023-04-09T21:55:25.435Z,5.10
2023-04-09T21:58:11.473Z,5.68
2023-04-09T22:00:57.108Z,8.45
2023-04-09T22:03:43.676Z,7.22
2023-04-09T22:06:30.398Z,8.57
2023-04-09T22:09:16.044Z,16.92
2023-04-09T22:12:02.482Z,17.35
2023-04-09T22:14:48.469Z,11.75
2023-04-09T22:17:33.944Z,7.55
2023-04-09T22:20:19.696Z,6.07
2023-04-09T22:23:05.219Z,10.80
2023-04-09T22:25:57.684Z,11.10
2023-04-09T22:28:43.339Z,9.25
2023-04-09T22:31:28.838Z,12.43
2023-04-09T22:34:20.962Z,10.35
2023-04-09T22:37:07.426Z,12.90
2023-04-09T22:39:53.205Z,10.88
2023-04-09T22:42:39.556Z,13.50
2023-04-09T22:45:27.153Z,12.70
2023-04-09T22:48:13.119Z,13.85
2023-04-09T22:50:59.829Z,7.88
2023-04-09T22:53:46.329Z,8.50
2023-04-09T22:56:32.816Z,8.35
2023-04-09T22:59:19.971Z,7.93
2023-04-09T23:02:07.658Z,5.87
2023-04-09T23:04:53.551Z,8.32
2023-04-09T23:07:39.509Z,6.25
2023-04-09T23:10:25.144Z,7.93
2023-04-09T23:13:13.195Z,9.68
2023-04-09T23:15:59.151Z,8.80
2023-04-09T23:18:44.876Z,10.30
2023-04-09T23:21:31.151Z,9.45
2023-04-09T23:24:17.972Z,10.88
2023-04-09T23:27:03.742Z,9.98
2023-04-09T23:29:49.193Z,12.02
2023-04-09T23:32:35.227Z,9.48
2023-04-09T23:35:21.121Z,9.32
2023-04-09T23:38:07.057Z,9.60
2023-04-09T23:40:52.534Z,10.73
2023-04-09T23:43:38.109Z,11.65
2023-04-09T23:46:23.530Z,11.48
2023-04-09T23:49:09.121Z,11.57
2023-04-09T23:51:54.672Z,11.15
2023-04-09T23:54:50.724Z,19.15
2023-04-09T23:57:37.027Z,22.17
